sensor_id;sensor_type;location;lat;lon;timestamp;temperature;humidity
38333;DHT22;25748;46.670;14.272;2022-10-29T00:01:46;8.50;82.00
38333;DHT22;25748;46.670;14.272;2022-10-29T00:04:11;8.60;82.30
38333;DHT22;25748;46.670;14.272;2022-10-29T00:06:37;8.60;82.40
38333;DHT22;25748;46.670;14.272;2022-10-29T00:09:03;8.60;82.40
38333;DHT22;25748;46.670;14.272;2022-10-29T00:11:30;8.60;82.40
38333;DHT22;25748;46.670;14.272;2022-10-29T00:13:58;8.60;82.50
38333;DHT22;25748;46.670;14.272;2022-10-29T00:16:27;8.70;82.60
38333;DHT22;25748;46.670;14.272;2022-10-29T00:18:54;8.70;82.80
38333;DHT22;25748;46.670;14.272;2022-10-29T00:21:22;8.70;83.10
38333;DHT22;25748;46.670;14.272;2022-10-29T00:23:48;8.80;83.40
38333;DHT22;25748;46.670;14.272;2022-10-29T00:26:15;8.80;83.70
38333;DHT22;25748;46.670;14.272;2022-10-29T00:28:41;8.80;84.00
38333;DHT22;25748;46.670;14.272;2022-10-29T00:31:17;8.80;84.20
38333;DHT22;25748;46.670;14.272;2022-10-29T00:33:44;8.80;84.30
38333;DHT22;25748;46.670;14.272;2022-10-29T00:36:12;8.80;84.30
38333;DHT22;25748;46.670;14.272;2022-10-29T00:38:38;8.80;84.30
38333;DHT22;25748;46.670;14.272;2022-10-29T00:41:06;8.80;84.70
38333;DHT22;25748;46.670;14.272;2022-10-29T00:43:33;8.80;84.70
38333;DHT22;25748;46.670;14.272;2022-10-29T00:46:05;8.70;84.80
38333;DHT22;25748;46.670;14.272;2022-10-29T00:48:35;8.70;84.80
38333;DHT22;25748;46.670;14.272;2022-10-29T00:51:03;8.70;85.00
38333;DHT22;25748;46.670;14.272;2022-10-29T00:53:32;8.70;85.10
38333;DHT22;25748;46.670;14.272;2022-10-29T00:55:59;8.70;85.30
38333;DHT22;25748;46.670;14.272;2022-10-29T00:58:25;8.70;85.30
38333;DHT22;25748;46.670;14.272;2022-10-29T01:00:52;8.70;85.20
38333;DHT22;25748;46.670;14.272;2022-10-29T01:03:17;8.70;85.10
38333;DHT22;25748;46.670;14.272;2022-10-29T01:05:44;8.70;85.40
38333;DHT22;25748;46.670;14.272;2022-10-29T01:08:12;8.70;85.60
38333;DHT22;25748;46.670;14.272;2022-10-29T01:16:25;8.70;85.80
38333;DHT22;25748;46.670;14.272;2022-10-29T01:19:15;8.70;85.80
38333;DHT22;25748;46.670;14.272;2022-10-29T01:24:28;8.70;85.90
38333;DHT22;25748;46.670;14.272;2022-10-29T01:40:27;8.60;85.20
38333;DHT22;25748;46.670;14.272;2022-10-29T01:43:14;8.50;84.50
38333;DHT22;25748;46.670;14.272;2022-10-29T01:45:50;8.50;84.40
38333;DHT22;25748;46.670;14.272;2022-10-29T01:48:21;8.40;84.30
38333;DHT22;25748;46.670;14.272;2022-10-29T01:50:51;8.40;84.10
38333;DHT22;25748;46.670;14.272;2022-10-29T01:53:19;8.40;84.10
38333;DHT22;25748;46.670;14.272;2022-10-29T01:55:46;8.30;83.60
38333;DHT22;25748;46.670;14.272;2022-10-29T01:58:12;8.30;83.70
38333;DHT22;25748;46.670;14.272;2022-10-29T02:09:32;8.20;83.80
38333;DHT22;25748;46.670;14.272;2022-10-29T02:12:08;8.20;84.00
38333;DHT22;25748;46.670;14.272;2022-10-29T02:14:53;8.20;84.20
38333;DHT22;25748;46.670;14.272;2022-10-29T02:17:20;8.20;84.40
38333;DHT22;25748;46.670;14.272;2022-10-29T02:19:46;8.20;84.50
38333;DHT22;25748;46.670;14.272;2022-10-29T02:22:11;8.20;84.70
38333;DHT22;25748;46.670;14.272;2022-10-29T02:24:37;8.20;85.00
38333;DHT22;25748;46.670;14.272;2022-10-29T02:27:03;8.20;85.20
38333;DHT22;25748;46.670;14.272;2022-10-29T02:29:28;8.30;85.40
38333;DHT22;25748;46.670;14.272;2022-10-29T02:31:54;8.30;85.50
38333;DHT22;25748;46.670;14.272;2022-10-29T02:34:20;8.30;85.80
38333;DHT22;25748;46.670;14.272;2022-10-29T02:36:45;8.30;85.90
38333;DHT22;25748;46.670;14.272;2022-10-29T02:39:12;8.40;86.10
38333;DHT22;25748;46.670;14.272;2022-10-29T02:41:38;8.40;86.20
38333;DHT22;25748;46.670;14.272;2022-10-29T02:44:03;8.40;86.30
38333;DHT22;25748;46.670;14.272;2022-10-29T02:46:29;8.50;86.50
38333;DHT22;25748;46.670;14.272;2022-10-29T02:48:56;8.50;86.60
38333;DHT22;25748;46.670;14.272;2022-10-29T02:51:21;8.50;86.60
38333;DHT22;25748;46.670;14.272;2022-10-29T02:53:47;8.50;86.50
38333;DHT22;25748;46.670;14.272;2022-10-29T02:56:13;8.50;86.70
38333;DHT22;25748;46.670;14.272;2022-10-29T02:58:38;8.50;87.00
38333;DHT22;25748;46.670;14.272;2022-10-29T03:01:04;8.50;87.00
38333;DHT22;25748;46.670;14.272;2022-10-29T03:03:31;8.50;87.20
38333;DHT22;25748;46.670;14.272;2022-10-29T03:05:57;8.50;87.10
38333;DHT22;25748;46.670;14.272;2022-10-29T03:08:23;8.50;86.90
38333;DHT22;25748;46.670;14.272;2022-10-29T03:10:49;8.50;87.20
38333;DHT22;25748;46.670;14.272;2022-10-29T03:13:14;8.60;87.20
38333;DHT22;25748;46.670;14.272;2022-10-29T03:15:43;8.50;87.40
38333;DHT22;25748;46.670;14.272;2022-10-29T03:18:09;8.60;87.50
38333;DHT22;25748;46.670;14.272;2022-10-29T03:20:35;8.60;87.50
38333;DHT22;25748;46.670;14.272;2022-10-29T03:23:02;8.60;87.70
38333;DHT22;25748;46.670;14.272;2022-10-29T03:25:28;8.60;87.80
38333;DHT22;25748;46.670;14.272;2022-10-29T03:27:54;8.60;87.80
38333;DHT22;25748;46.670;14.272;2022-10-29T03:30:19;8.60;87.90
38333;DHT22;25748;46.670;14.272;2022-10-29T03:32:46;8.70;88.00
38333;DHT22;25748;46.670;14.272;2022-10-29T03:35:14;8.60;88.00
38333;DHT22;25748;46.670;14.272;2022-10-29T03:37:40;8.60;88.00
38333;DHT22;25748;46.670;14.272;2022-10-29T03:40:06;8.70;88.10
38333;DHT22;25748;46.670;14.272;2022-10-29T03:42:33;8.70;88.00
38333;DHT22;25748;46.670;14.272;2022-10-29T03:45:01;8.60;87.90
38333;DHT22;25748;46.670;14.272;2022-10-29T03:47:28;8.60;87.70
38333;DHT22;25748;46.670;14.272;2022-10-29T03:49:54;8.60;87.40
38333;DHT22;25748;46.670;14.272;2022-10-29T03:52:20;8.60;87.40
38333;DHT22;25748;46.670;14.272;2022-10-29T03:54:46;8.60;87.30
38333;DHT22;25748;46.670;14.272;2022-10-29T03:57:11;8.60;87.30
38333;DHT22;25748;46.670;14.272;2022-10-29T03:59:37;8.60;87.20
38333;DHT22;25748;46.670;14.272;2022-10-29T04:02:03;8.60;87.30
38333;DHT22;25748;46.670;14.272;2022-10-29T04:04:29;8.60;87.50
38333;DHT22;25748;46.670;14.272;2022-10-29T04:06:54;8.50;87.70
38333;DHT22;25748;46.670;14.272;2022-10-29T04:09:20;8.60;87.90
38333;DHT22;25748;46.670;14.272;2022-10-29T04:11:46;8.60;88.10
38333;DHT22;25748;46.670;14.272;2022-10-29T04:14:11;8.60;88.20
38333;DHT22;25748;46.670;14.272;2022-10-29T04:16:37;8.60;88.20
38333;DHT22;25748;46.670;14.272;2022-10-29T04:19:03;8.60;88.00
38333;DHT22;25748;46.670;14.272;2022-10-29T04:21:29;8.60;88.80
38333;DHT22;25748;46.670;14.272;2022-10-29T04:23:54;8.60;89.10
38333;DHT22;25748;46.670;14.272;2022-10-29T04:26:20;8.60;89.20
38333;DHT22;25748;46.670;14.272;2022-10-29T04:28:49;8.50;89.20
38333;DHT22;25748;46.670;14.272;2022-10-29T04:31:16;8.60;89.10
38333;DHT22;25748;46.670;14.272;2022-10-29T04:33:42;8.50;89.00
38333;DHT22;25748;46.670;14.272;2022-10-29T04:36:08;8.50;89.00
38333;DHT22;25748;46.670;14.272;2022-10-29T04:38:34;8.50;89.10
38333;DHT22;25748;46.670;14.272;2022-10-29T04:41:00;8.50;89.00
38333;DHT22;25748;46.670;14.272;2022-10-29T04:43:27;8.50;89.20
38333;DHT22;25748;46.670;14.272;2022-10-29T04:45:53;8.50;89.30
38333;DHT22;25748;46.670;14.272;2022-10-29T04:48:20;8.50;89.40
38333;DHT22;25748;46.670;14.272;2022-10-29T04:50:46;8.60;89.60
38333;DHT22;25748;46.670;14.272;2022-10-29T04:53:11;8.60;89.70
38333;DHT22;25748;46.670;14.272;2022-10-29T04:55:38;8.60;89.70
38333;DHT22;25748;46.670;14.272;2022-10-29T04:58:05;8.60;89.90
38333;DHT22;25748;46.670;14.272;2022-10-29T05:00:31;8.60;89.90
38333;DHT22;25748;46.670;14.272;2022-10-29T05:02:57;8.60;89.70
38333;DHT22;25748;46.670;14.272;2022-10-29T05:05:26;8.60;89.60
38333;DHT22;25748;46.670;14.272;2022-10-29T05:07:59;8.60;89.50
38333;DHT22;25748;46.670;14.272;2022-10-29T05:10:27;8.60;89.60
38333;DHT22;25748;46.670;14.272;2022-10-29T05:12:57;8.60;89.60
38333;DHT22;25748;46.670;14.272;2022-10-29T05:15:23;8.60;89.60
38333;DHT22;25748;46.670;14.272;2022-10-29T05:17:49;8.70;89.80
38333;DHT22;25748;46.670;14.272;2022-10-29T05:20:15;8.70;89.80
38333;DHT22;25748;46.670;14.272;2022-10-29T05:22:40;8.70;89.70
38333;DHT22;25748;46.670;14.272;2022-10-29T05:25:06;8.70;89.70
38333;DHT22;25748;46.670;14.272;2022-10-29T05:27:32;8.70;89.80
38333;DHT22;25748;46.670;14.272;2022-10-29T05:29:58;8.70;89.80
38333;DHT22;25748;46.670;14.272;2022-10-29T05:32:23;8.70;89.90
38333;DHT22;25748;46.670;14.272;2022-10-29T05:34:49;8.70;89.90
38333;DHT22;25748;46.670;14.272;2022-10-29T05:37:14;8.70;89.80
38333;DHT22;25748;46.670;14.272;2022-10-29T05:39:40;8.70;89.60
38333;DHT22;25748;46.670;14.272;2022-10-29T05:42:06;8.70;89.60
38333;DHT22;25748;46.670;14.272;2022-10-29T05:44:31;8.70;89.50
38333;DHT22;25748;46.670;14.272;2022-10-29T05:46:57;8.70;89.60
38333;DHT22;25748;46.670;14.272;2022-10-29T05:49:23;8.70;89.40
38333;DHT22;25748;46.670;14.272;2022-10-29T05:51:48;8.70;89.40
38333;DHT22;25748;46.670;14.272;2022-10-29T05:54:14;8.70;89.60
38333;DHT22;25748;46.670;14.272;2022-10-29T05:56:39;8.70;89.80
38333;DHT22;25748;46.670;14.272;2022-10-29T05:59:05;8.70;89.90
38333;DHT22;25748;46.670;14.272;2022-10-29T06:01:31;8.70;89.80
38333;DHT22;25748;46.670;14.272;2022-10-29T06:03:57;8.80;90.00
38333;DHT22;25748;46.670;14.272;2022-10-29T06:06:24;8.80;90.10
38333;DHT22;25748;46.670;14.272;2022-10-29T06:08:50;8.80;90.20
38333;DHT22;25748;46.670;14.272;2022-10-29T06:11:15;8.80;90.20
38333;DHT22;25748;46.670;14.272;2022-10-29T06:13:41;8.80;90.20
38333;DHT22;25748;46.670;14.272;2022-10-29T06:16:07;8.90;90.20
38333;DHT22;25748;46.670;14.272;2022-10-29T06:18:32;8.90;90.20
38333;DHT22;25748;46.670;14.272;2022-10-29T06:20:59;8.90;90.20
38333;DHT22;25748;46.670;14.272;2022-10-29T06:23:25;8.90;90.30
38333;DHT22;25748;46.670;14.272;2022-10-29T06:25:51;8.90;90.20
38333;DHT22;25748;46.670;14.272;2022-10-29T06:28:17;8.90;90.30
38333;DHT22;25748;46.670;14.272;2022-10-29T06:30:50;8.90;90.40
38333;DHT22;25748;46.670;14.272;2022-10-29T06:33:17;8.90;90.50
38333;DHT22;25748;46.670;14.272;2022-10-29T06:35:44;8.90;90.50
38333;DHT22;25748;46.670;14.272;2022-10-29T06:38:10;9.00;90.40
38333;DHT22;25748;46.670;14.272;2022-10-29T06:40:36;9.00;90.50
38333;DHT22;25748;46.670;14.272;2022-10-29T06:43:04;9.00;90.60
38333;DHT22;25748;46.670;14.272;2022-10-29T06:45:30;9.00;90.60
38333;DHT22;25748;46.670;14.272;2022-10-29T06:47:56;9.10;90.60
38333;DHT22;25748;46.670;14.272;2022-10-29T06:50:22;9.10;90.50
38333;DHT22;25748;46.670;14.272;2022-10-29T06:52:59;9.00;90.30
38333;DHT22;25748;46.670;14.272;2022-10-29T06:55:25;9.10;90.40
38333;DHT22;25748;46.670;14.272;2022-10-29T06:57:59;9.10;90.40
38333;DHT22;25748;46.670;14.272;2022-10-29T07:00:26;9.10;90.30
38333;DHT22;25748;46.670;14.272;2022-10-29T07:02:52;9.10;90.30
38333;DHT22;25748;46.670;14.272;2022-10-29T07:05:18;9.20;90.40
38333;DHT22;25748;46.670;14.272;2022-10-29T07:07:43;9.20;90.40
38333;DHT22;25748;46.670;14.272;2022-10-29T07:10:09;9.30;90.50
38333;DHT22;25748;46.670;14.272;2022-10-29T07:12:42;9.30;90.40
38333;DHT22;25748;46.670;14.272;2022-10-29T07:15:09;9.40;90.50
38333;DHT22;25748;46.670;14.272;2022-10-29T07:17:35;9.40;90.50
38333;DHT22;25748;46.670;14.272;2022-10-29T07:20:00;9.50;90.60
38333;DHT22;25748;46.670;14.272;2022-10-29T07:22:26;9.50;90.60
38333;DHT22;25748;46.670;14.272;2022-10-29T07:24:52;9.60;90.70
38333;DHT22;25748;46.670;14.272;2022-10-29T07:27:17;9.70;90.70
38333;DHT22;25748;46.670;14.272;2022-10-29T07:29:43;9.70;90.70
38333;DHT22;25748;46.670;14.272;2022-10-29T07:32:09;9.80;90.70
38333;DHT22;25748;46.670;14.272;2022-10-29T07:34:34;9.90;90.60
38333;DHT22;25748;46.670;14.272;2022-10-29T07:37:00;10.00;90.60
38333;DHT22;25748;46.670;14.272;2022-10-29T07:39:26;10.00;90.50
38333;DHT22;25748;46.670;14.272;2022-10-29T07:41:51;10.10;90.30
38333;DHT22;25748;46.670;14.272;2022-10-29T07:44:17;10.20;90.50
38333;DHT22;25748;46.670;14.272;2022-10-29T07:46:43;10.20;90.20
38333;DHT22;25748;46.670;14.272;2022-10-29T07:49:09;10.30;90.20
38333;DHT22;25748;46.670;14.272;2022-10-29T07:51:34;10.40;90.30
38333;DHT22;25748;46.670;14.272;2022-10-29T07:54:00;10.40;90.20
38333;DHT22;25748;46.670;14.272;2022-10-29T07:56:26;10.50;89.80
38333;DHT22;25748;46.670;14.272;2022-10-29T07:58:51;10.50;89.30
38333;DHT22;25748;46.670;14.272;2022-10-29T08:01:17;10.60;88.90
38333;DHT22;25748;46.670;14.272;2022-10-29T08:03:42;10.60;88.30
38333;DHT22;25748;46.670;14.272;2022-10-29T08:06:09;10.60;87.80
38333;DHT22;25748;46.670;14.272;2022-10-29T08:08:35;10.70;87.70
38333;DHT22;25748;46.670;14.272;2022-10-29T08:11:02;10.70;87.30
38333;DHT22;25748;46.670;14.272;2022-10-29T08:13:29;10.70;87.30
38333;DHT22;25748;46.670;14.272;2022-10-29T08:15:55;10.70;86.70
38333;DHT22;25748;46.670;14.272;2022-10-29T08:18:20;10.70;86.60
38333;DHT22;25748;46.670;14.272;2022-10-29T08:20:46;10.70;86.40
38333;DHT22;25748;46.670;14.272;2022-10-29T08:23:12;10.70;86.80
38333;DHT22;25748;46.670;14.272;2022-10-29T08:25:38;10.80;86.80
38333;DHT22;25748;46.670;14.272;2022-10-29T08:28:13;10.80;87.10
38333;DHT22;25748;46.670;14.272;2022-10-29T08:30:39;10.80;86.60
38333;DHT22;25748;46.670;14.272;2022-10-29T08:33:05;10.90;87.00
38333;DHT22;25748;46.670;14.272;2022-10-29T08:35:32;11.00;87.00
38333;DHT22;25748;46.670;14.272;2022-10-29T08:37:58;10.90;85.90
38333;DHT22;25748;46.670;14.272;2022-10-29T08:45:48;11.20;86.80
38333;DHT22;25748;46.670;14.272;2022-10-29T08:51:23;11.40;86.20
38333;DHT22;25748;46.670;14.272;2022-10-29T08:53:52;11.50;85.20
38333;DHT22;25748;46.670;14.272;2022-10-29T08:56:21;11.60;85.10
38333;DHT22;25748;46.670;14.272;2022-10-29T08:59:07;11.70;85.10
38333;DHT22;25748;46.670;14.272;2022-10-29T09:01:34;11.80;84.80
38333;DHT22;25748;46.670;14.272;2022-10-29T09:04:01;11.90;84.90
38333;DHT22;25748;46.670;14.272;2022-10-29T09:06:55;12.00;84.20
38333;DHT22;25748;46.670;14.272;2022-10-29T09:15:22;12.30;83.00
38333;DHT22;25748;46.670;14.272;2022-10-29T09:26:24;13.00;81.60
38333;DHT22;25748;46.670;14.272;2022-10-29T09:31:52;13.30;79.90
38333;DHT22;25748;46.670;14.272;2022-10-29T09:34:51;13.50;79.40
38333;DHT22;25748;46.670;14.272;2022-10-29T09:37:32;13.70;78.40
38333;DHT22;25748;46.670;14.272;2022-10-29T09:39:58;13.80;77.40
38333;DHT22;25748;46.670;14.272;2022-10-29T09:42:34;14.00;77.20
38333;DHT22;25748;46.670;14.272;2022-10-29T09:45:02;14.20;76.20
38333;DHT22;25748;46.670;14.272;2022-10-29T09:47:52;14.40;76.10
38333;DHT22;25748;46.670;14.272;2022-10-29T09:53:23;14.80;74.90
38333;DHT22;25748;46.670;14.272;2022-10-29T09:55:49;15.00;74.00
38333;DHT22;25748;46.670;14.272;2022-10-29T09:58:21;15.20;72.80
38333;DHT22;25748;46.670;14.272;2022-10-29T10:00:48;15.40;72.50
38333;DHT22;25748;46.670;14.272;2022-10-29T10:03:30;15.60;71.90
38333;DHT22;25748;46.670;14.272;2022-10-29T10:06:07;15.70;70.30
38333;DHT22;25748;46.670;14.272;2022-10-29T10:09:02;15.80;67.50
38333;DHT22;25748;46.670;14.272;2022-10-29T10:11:49;16.00;66.60
38333;DHT22;25748;46.670;14.272;2022-10-29T10:14:21;16.20;65.70
38333;DHT22;25748;46.670;14.272;2022-10-29T10:17:00;16.30;64.00
38333;DHT22;25748;46.670;14.272;2022-10-29T10:19:30;16.50;63.50
38333;DHT22;25748;46.670;14.272;2022-10-29T10:22:02;16.70;62.40
38333;DHT22;25748;46.670;14.272;2022-10-29T10:26:56;16.90;60.60
38333;DHT22;25748;46.670;14.272;2022-10-29T10:29:25;17.00;60.10
38333;DHT22;25748;46.670;14.272;2022-10-29T10:34:25;17.20;59.00
38333;DHT22;25748;46.670;14.272;2022-10-29T10:39:59;17.30;59.20
38333;DHT22;25748;46.670;14.272;2022-10-29T10:47:21;17.60;58.10
38333;DHT22;25748;46.670;14.272;2022-10-29T10:49:48;17.80;58.30
38333;DHT22;25748;46.670;14.272;2022-10-29T10:52:20;17.90;58.20
38333;DHT22;25748;46.670;14.272;2022-10-29T10:55:08;17.80;57.80
38333;DHT22;25748;46.670;14.272;2022-10-29T10:57:44;18.00;58.30
38333;DHT22;25748;46.670;14.272;2022-10-29T11:00:19;18.20;57.80
38333;DHT22;25748;46.670;14.272;2022-10-29T11:03:02;18.40;58.10
38333;DHT22;25748;46.670;14.272;2022-10-29T11:05:40;18.50;57.20
38333;DHT22;25748;46.670;14.272;2022-10-29T11:08:23;18.60;57.50
38333;DHT22;25748;46.670;14.272;2022-10-29T11:10:57;18.70;57.80
38333;DHT22;25748;46.670;14.272;2022-10-29T11:13:26;18.70;56.60
38333;DHT22;25748;46.670;14.272;2022-10-29T11:24:04;19.30;56.70
38333;DHT22;25748;46.670;14.272;2022-10-29T11:26:52;19.40;56.00
38333;DHT22;25748;46.670;14.272;2022-10-29T11:32:25;19.60;55.60
38333;DHT22;25748;46.670;14.272;2022-10-29T11:35:21;19.70;55.60
38333;DHT22;25748;46.670;14.272;2022-10-29T11:37:58;19.70;55.10
38333;DHT22;25748;46.670;14.272;2022-10-29T11:41:21;19.90;55.30
38333;DHT22;25748;46.670;14.272;2022-10-29T11:43:22;19.90;54.40
38333;DHT22;25748;46.670;14.272;2022-10-29T11:46:21;20.00;54.60
38333;DHT22;25748;46.670;14.272;2022-10-29T11:56:45;20.30;54.00
38333;DHT22;25748;46.670;14.272;2022-10-29T12:04:59;20.50;52.70
38333;DHT22;25748;46.670;14.272;2022-10-29T12:07:46;20.70;53.60
38333;DHT22;25748;46.670;14.272;2022-10-29T12:13:46;21.20;52.80
38333;DHT22;25748;46.670;14.272;2022-10-29T12:16:30;21.20;52.10
38333;DHT22;25748;46.670;14.272;2022-10-29T12:29:19;21.40;52.00
38333;DHT22;25748;46.670;14.272;2022-10-29T12:35:05;21.10;50.80
38333;DHT22;25748;46.670;14.272;2022-10-29T12:40:29;21.60;51.50
38333;DHT22;25748;46.670;14.272;2022-10-29T12:43:05;21.50;50.80
38333;DHT22;25748;46.670;14.272;2022-10-29T12:45:53;21.60;50.90
38333;DHT22;25748;46.670;14.272;2022-10-29T12:56:54;22.30;50.20
38333;DHT22;25748;46.670;14.272;2022-10-29T12:59:28;22.40;49.60
38333;DHT22;25748;46.670;14.272;2022-10-29T13:02:25;22.60;49.50
38333;DHT22;25748;46.670;14.272;2022-10-29T13:08:32;22.80;49.50
38333;DHT22;25748;46.670;14.272;2022-10-29T13:11:21;23.00;49.20
38333;DHT22;25748;46.670;14.272;2022-10-29T13:13:56;23.00;49.10
38333;DHT22;25748;46.670;14.272;2022-10-29T13:17:04;23.00;48.30
38333;DHT22;25748;46.670;14.272;2022-10-29T13:20:18;22.90;49.00
38333;DHT22;25748;46.670;14.272;2022-10-29T13:22:54;23.00;48.80
38333;DHT22;25748;46.670;14.272;2022-10-29T13:30:38;23.00;48.10
38333;DHT22;25748;46.670;14.272;2022-10-29T13:38:17;22.80;48.10
38333;DHT22;25748;46.670;14.272;2022-10-29T13:43:26;22.50;48.10
38333;DHT22;25748;46.670;14.272;2022-10-29T13:46:05;22.40;48.50
38333;DHT22;25748;46.670;14.272;2022-10-29T13:48:39;22.40;48.20
38333;DHT22;25748;46.670;14.272;2022-10-29T13:51:12;22.30;48.70
38333;DHT22;25748;46.670;14.272;2022-10-29T13:53:53;22.30;48.60
38333;DHT22;25748;46.670;14.272;2022-10-29T13:56:29;22.20;49.00
38333;DHT22;25748;46.670;14.272;2022-10-29T13:58:59;22.10;49.00
38333;DHT22;25748;46.670;14.272;2022-10-29T14:01:27;22.20;49.20
38333;DHT22;25748;46.670;14.272;2022-10-29T14:04:04;22.20;48.80
38333;DHT22;25748;46.670;14.272;2022-10-29T14:06:37;22.20;49.10
38333;DHT22;25748;46.670;14.272;2022-10-29T14:09:23;22.20;49.10
38333;DHT22;25748;46.670;14.272;2022-10-29T14:11:59;22.20;49.00
38333;DHT22;25748;46.670;14.272;2022-10-29T14:15:02;22.10;48.60
38333;DHT22;25748;46.670;14.272;2022-10-29T14:17:34;22.10;48.90
38333;DHT22;25748;46.670;14.272;2022-10-29T14:20:01;22.10;49.00
38333;DHT22;25748;46.670;14.272;2022-10-29T14:22:33;22.20;49.00
38333;DHT22;25748;46.670;14.272;2022-10-29T14:25:21;22.10;48.90
38333;DHT22;25748;46.670;14.272;2022-10-29T14:28:17;22.10;48.90
38333;DHT22;25748;46.670;14.272;2022-10-29T14:30:47;21.90;49.70
38333;DHT22;25748;46.670;14.272;2022-10-29T14:33:24;21.80;49.80
38333;DHT22;25748;46.670;14.272;2022-10-29T14:35:52;21.50;49.60
38333;DHT22;25748;46.670;14.272;2022-10-29T14:38:21;21.50;50.20
38333;DHT22;25748;46.670;14.272;2022-10-29T14:40:49;21.50;50.30
38333;DHT22;25748;46.670;14.272;2022-10-29T14:43:33;21.40;50.20
38333;DHT22;25748;46.670;14.272;2022-10-29T14:46:27;21.30;50.40
38333;DHT22;25748;46.670;14.272;2022-10-29T14:49:10;21.30;50.80
38333;DHT22;25748;46.670;14.272;2022-10-29T14:51:39;21.20;50.60
38333;DHT22;25748;46.670;14.272;2022-10-29T14:54:07;21.20;51.00
38333;DHT22;25748;46.670;14.272;2022-10-29T14:56:39;21.10;51.10
38333;DHT22;25748;46.670;14.272;2022-10-29T14:59:18;21.00;51.00
38333;DHT22;25748;46.670;14.272;2022-10-29T15:01:50;20.90;51.00
38333;DHT22;25748;46.670;14.272;2022-10-29T15:04:25;20.80;51.20
38333;DHT22;25748;46.670;14.272;2022-10-29T15:07:15;20.60;51.70
38333;DHT22;25748;46.670;14.272;2022-10-29T15:09:42;20.50;52.70
38333;DHT22;25748;46.670;14.272;2022-10-29T15:12:20;20.50;53.60
38333;DHT22;25748;46.670;14.272;2022-10-29T15:14:51;20.40;54.30
38333;DHT22;25748;46.670;14.272;2022-10-29T15:17:24;20.30;54.30
38333;DHT22;25748;46.670;14.272;2022-10-29T15:19:55;20.20;54.40
38333;DHT22;25748;46.670;14.272;2022-10-29T15:22:33;20.00;54.40
38333;DHT22;25748;46.670;14.272;2022-10-29T15:25:05;19.90;54.60
38333;DHT22;25748;46.670;14.272;2022-10-29T15:27:35;19.80;54.70
38333;DHT22;25748;46.670;14.272;2022-10-29T15:30:03;19.70;54.80
38333;DHT22;25748;46.670;14.272;2022-10-29T15:32:30;19.60;54.80
38333;DHT22;25748;46.670;14.272;2022-10-29T15:34:57;19.40;55.00
38333;DHT22;25748;46.670;14.272;2022-10-29T15:37:45;19.30;55.20
38333;DHT22;25748;46.670;14.272;2022-10-29T15:40:19;19.20;55.50
38333;DHT22;25748;46.670;14.272;2022-10-29T15:42:45;19.10;55.90
38333;DHT22;25748;46.670;14.272;2022-10-29T15:47:39;18.90;56.50
38333;DHT22;25748;46.670;14.272;2022-10-29T15:50:11;18.70;57.00
38333;DHT22;25748;46.670;14.272;2022-10-29T15:52:46;18.60;57.30
38333;DHT22;25748;46.670;14.272;2022-10-29T15:55:27;18.50;57.60
38333;DHT22;25748;46.670;14.272;2022-10-29T15:58:01;18.40;57.60
38333;DHT22;25748;46.670;14.272;2022-10-29T16:00:28;18.20;57.60
38333;DHT22;25748;46.670;14.272;2022-10-29T16:02:59;18.00;57.70
38333;DHT22;25748;46.670;14.272;2022-10-29T16:05:25;17.90;57.90
38333;DHT22;25748;46.670;14.272;2022-10-29T16:07:51;17.80;58.10
38333;DHT22;25748;46.670;14.272;2022-10-29T16:10:19;17.70;58.30
38333;DHT22;25748;46.670;14.272;2022-10-29T16:12:46;17.60;58.60
38333;DHT22;25748;46.670;14.272;2022-10-29T16:15:14;17.40;58.60
38333;DHT22;25748;46.670;14.272;2022-10-29T16:17:41;17.30;58.40
38333;DHT22;25748;46.670;14.272;2022-10-29T16:20:08;17.30;58.60
38333;DHT22;25748;46.670;14.272;2022-10-29T16:22:36;17.10;58.40
38333;DHT22;25748;46.670;14.272;2022-10-29T16:25:03;17.00;58.50
38333;DHT22;25748;46.670;14.272;2022-10-29T16:27:28;16.90;58.60
38333;DHT22;25748;46.670;14.272;2022-10-29T16:29:54;16.70;58.70
38333;DHT22;25748;46.670;14.272;2022-10-29T16:32:22;16.60;58.60
38333;DHT22;25748;46.670;14.272;2022-10-29T16:34:48;16.40;58.70
38333;DHT22;25748;46.670;14.272;2022-10-29T16:37:16;16.30;58.70
38333;DHT22;25748;46.670;14.272;2022-10-29T16:39:42;16.20;58.90
38333;DHT22;25748;46.670;14.272;2022-10-29T16:42:29;16.00;59.40
38333;DHT22;25748;46.670;14.272;2022-10-29T16:44:56;15.90;59.40
38333;DHT22;25748;46.670;14.272;2022-10-29T16:47:22;15.80;59.40
38333;DHT22;25748;46.670;14.272;2022-10-29T16:49:48;15.70;59.50
38333;DHT22;25748;46.670;14.272;2022-10-29T16:52:13;15.60;59.50
38333;DHT22;25748;46.670;14.272;2022-10-29T16:54:39;15.50;59.80
38333;DHT22;25748;46.670;14.272;2022-10-29T16:57:05;15.40;60.10
38333;DHT22;25748;46.670;14.272;2022-10-29T16:59:30;15.30;60.20
38333;DHT22;25748;46.670;14.272;2022-10-29T17:01:56;15.30;60.20
38333;DHT22;25748;46.670;14.272;2022-10-29T17:04:22;15.20;60.30
38333;DHT22;25748;46.670;14.272;2022-10-29T17:06:48;15.10;60.60
38333;DHT22;25748;46.670;14.272;2022-10-29T17:09:13;15.10;61.00
38333;DHT22;25748;46.670;14.272;2022-10-29T17:11:39;15.00;61.30
38333;DHT22;25748;46.670;14.272;2022-10-29T17:14:05;14.90;61.50
38333;DHT22;25748;46.670;14.272;2022-10-29T17:16:30;14.90;61.50
38333;DHT22;25748;46.670;14.272;2022-10-29T17:18:56;14.80;61.40
38333;DHT22;25748;46.670;14.272;2022-10-29T17:21:23;14.80;61.30
38333;DHT22;25748;46.670;14.272;2022-10-29T17:23:49;14.70;61.50
38333;DHT22;25748;46.670;14.272;2022-10-29T17:26:15;14.60;61.90
38333;DHT22;25748;46.670;14.272;2022-10-29T17:28:41;14.50;62.30
38333;DHT22;25748;46.670;14.272;2022-10-29T17:31:14;14.50;62.90
38333;DHT22;25748;46.670;14.272;2022-10-29T17:33:40;14.50;63.10
38333;DHT22;25748;46.670;14.272;2022-10-29T17:36:09;14.40;63.10
38333;DHT22;25748;46.670;14.272;2022-10-29T17:38:35;14.30;63.00
38333;DHT22;25748;46.670;14.272;2022-10-29T17:41:01;14.20;63.50
38333;DHT22;25748;46.670;14.272;2022-10-29T17:43:27;14.20;63.70
38333;DHT22;25748;46.670;14.272;2022-10-29T17:45:53;14.10;63.80
38333;DHT22;25748;46.670;14.272;2022-10-29T17:48:18;14.10;63.80
38333;DHT22;25748;46.670;14.272;2022-10-29T17:50:58;14.00;63.90
38333;DHT22;25748;46.670;14.272;2022-10-29T17:53:26;14.00;64.40
38333;DHT22;25748;46.670;14.272;2022-10-29T17:55:52;13.90;64.80
38333;DHT22;25748;46.670;14.272;2022-10-29T17:58:21;13.80;65.00
38333;DHT22;25748;46.670;14.272;2022-10-29T18:00:47;13.80;65.40
38333;DHT22;25748;46.670;14.272;2022-10-29T18:03:13;13.70;65.50
38333;DHT22;25748;46.670;14.272;2022-10-29T18:05:39;13.70;65.60